Terminal Aerodrome Forecast
Issued by NWS

Home | Current Version | Previous Version | Text Only | Print | Product List | Glossary On
Versions: 1 2 3 4 5 6 7 8 9 10 11 12 13 14 15 16 17 18 19 20 21 22 23 24 25 26 27
000
FTUS43 KBIS 220500
TAFMOT
TAF
KMOT 220539Z 2206/2306 12007KT 2SM BR OVC002
      TEMPO 2206/2210 3/4SM BR
     FM221000 12008KT 2SM BR VCSH OVC002
      TEMPO 2210/2214 1SM -FZRASN BR
     FM221400 35010KT 2SM -SN BR OVC005=

USA.gov is the U.S. government's official web portal to all federal, state and local government web resources and services.